Barhom II — 5IM534 — position and weather

sailwx.info

Track history (hours):
 
Tides and Currents Weather Stations Pressure Air Temp Water Temp Dewpoint Dewpoint Depression Visibility Wind Speed Wind Dir Waves Ship Positions

Barhom II

Last reported at 2016-May-24 18:18 UTC. Time now 2016-May-25 16:52 UTC.
Position N 32°41' E 014°15'.

Length 83 m; draft 4.6 m.

Type: Cargo ship. MMSI: 677043400.

Date/timePositionNaut miles runAvg speedWind from/ knotsBaromVisibWave heightAir tempDewpointWater temp
2016-May-24 18:18N 32°41' E 014°15'0 0.0
2016-May-24 16:21N 32°41' E 014°15'13 4.5
2016-May-24 13:33N 32°53' E 014°11'1111.3
2016-May-24 12:33N 33°02' E 014°03'1111.1
2016-May-24 11:32N 33°11' E 013°55'1010.8
2016-May-24 10:33N 33°20' E 013°48'2 1.5
2016-May-24 09:33N 33°21' E 013°48'6 6.2
2016-May-24 08:33N 33°27' E 013°45'1110.8
2016-May-24 07:33N 33°36' E 013°38'1110.8
2016-May-24 06:33N 33°45' E 013°31'1110.8
2016-May-24 05:33N 33°54' E 013°23'1111.1
2016-May-24 04:33N 34°03' E 013°16'1111.0
2016-May-24 03:33N 34°13' E 013°09'1110.7
2016-May-24 02:33N 34°22' E 013°01'8610.7
2016-May-23 18:31N 35°35' E 012°08'1110.9
2016-May-23 17:33N 35°45' E 012°04'10111.2
2016-May-23 08:33N 37°18' E 011°15'8611.6
2016-May-23 01:11N 37°39' E 009°30'711.1
2016-May-23 00:32N 37°43' E 009°23'4410.9
2016-May-22 20:33N 38°00' E 008°32'1211.7
2016-May-22 19:32N 38°07' E 008°20'21210.5
2016-May-21 23:21N 39°39' E 004°15'910.7
2016-May-21 22:33N 39°43' E 004°05'1110.8
2016-May-21 21:33N 39°47' E 003°53'3710.6
2016-May-21 18:06N 40°07' E 003°12'610.8
2016-May-21 17:33N 40°10' E 003°05'1110.8
2016-May-21 16:33N 40°16' E 002°53'1111.2
2016-May-21 15:33N 40°22' E 002°41'1111.1
2016-May-21 14:33N 40°28' E 002°29'1110.7
2016-May-21 13:33N 40°34' E 002°17'1110.9
2016-May-21 12:33N 40°39' E 002°05'1111.1
2016-May-21 11:33N 40°45' E 001°52'1010.1
2016-May-21 10:33N 40°51' E 001°42'1110.9
2016-May-21 09:33N 40°57' E 001°30'14 0.3
2016-May-19 10:33N 40°43' E 001°30'1010.0
2016-May-19 09:33N 40°33' E 001°34'1010.3
2016-May-19 08:33N 40°23' E 001°37'1010.3
2016-May-19 07:33N 40°13' E 001°41'1010.3
2016-May-19 06:33N 40°03' E 001°44'1110.7
2016-May-19 05:33N 39°53' E 001°48'1110.9
2016-May-19 04:33N 39°43' E 001°53'1111.3
2016-May-19 03:33N 39°32' E 001°57'1111.2
2016-May-19 02:33N 39°21' E 002°00'1111.3
2016-May-19 01:33N 39°11' E 002°06'1111.3
2016-May-19 00:33N 39°00' E 002°12'1211.4
2016-May-18 23:28N 38°49' E 002°17'1010.8
2016-May-18 22:33N 38°39' E 002°21'1110.9
2016-May-18 21:33N 38°29' E 002°24'1110.9
2016-May-18 20:32N 38°18' E 002°28'1210.9
2016-May-18 19:24N 38°06' E 002°32'  
2016-May-14 23:32N 33°02' E 014°43'3610.6
2016-May-14 20:05N 32°33' E 015°09'  
Track history (hours):
 
Tides and Currents Weather Stations Pressure Air Temp Water Temp Dewpoint Dewpoint Depression Visibility Wind Speed Wind Dir Waves Ship Positions

Barhom II

Last reported at 2016-May-24 18:18 UTC. Time now 2016-May-25 16:52 UTC.
Position N 32°41' E 014°15'.

Length 83 m; draft 4.6 m.

Type: Cargo ship. MMSI: 677043400.

Date/timePositionNaut miles runAvg speedWind from/ knotsBaromVisibWave heightAir tempDewpointWater temp
2016-May-24 18:18N 32°41' E 014°15'0 0.0
2016-May-24 16:21N 32°41' E 014°15'13 4.5
2016-May-24 13:33N 32°53' E 014°11'1111.3
2016-May-24 12:33N 33°02' E 014°03'1111.1
2016-May-24 11:32N 33°11' E 013°55'1010.8
2016-May-24 10:33N 33°20' E 013°48'2 1.5
2016-May-24 09:33N 33°21' E 013°48'6 6.2
2016-May-24 08:33N 33°27' E 013°45'1110.8
2016-May-24 07:33N 33°36' E 013°38'1110.8
2016-May-24 06:33N 33°45' E 013°31'1110.8
2016-May-24 05:33N 33°54' E 013°23'1111.1
2016-May-24 04:33N 34°03' E 013°16'1111.0
2016-May-24 03:33N 34°13' E 013°09'1110.7
2016-May-24 02:33N 34°22' E 013°01'8610.7
2016-May-23 18:31N 35°35' E 012°08'1110.9
2016-May-23 17:33N 35°45' E 012°04'10111.2
2016-May-23 08:33N 37°18' E 011°15'8611.6
2016-May-23 01:11N 37°39' E 009°30'711.1
2016-May-23 00:32N 37°43' E 009°23'4410.9
2016-May-22 20:33N 38°00' E 008°32'1211.7
2016-May-22 19:32N 38°07' E 008°20'21210.5
2016-May-21 23:21N 39°39' E 004°15'910.7
2016-May-21 22:33N 39°43' E 004°05'1110.8
2016-May-21 21:33N 39°47' E 003°53'3710.6
2016-May-21 18:06N 40°07' E 003°12'610.8
2016-May-21 17:33N 40°10' E 003°05'1110.8
2016-May-21 16:33N 40°16' E 002°53'1111.2
2016-May-21 15:33N 40°22' E 002°41'1111.1
2016-May-21 14:33N 40°28' E 002°29'1110.7
2016-May-21 13:33N 40°34' E 002°17'1110.9
2016-May-21 12:33N 40°39' E 002°05'1111.1
2016-May-21 11:33N 40°45' E 001°52'1010.1
2016-May-21 10:33N 40°51' E 001°42'1110.9
2016-May-21 09:33N 40°57' E 001°30'14 0.3
2016-May-19 10:33N 40°43' E 001°30'1010.0
2016-May-19 09:33N 40°33' E 001°34'1010.3
2016-May-19 08:33N 40°23' E 001°37'1010.3
2016-May-19 07:33N 40°13' E 001°41'1010.3
2016-May-19 06:33N 40°03' E 001°44'1110.7
2016-May-19 05:33N 39°53' E 001°48'1110.9
2016-May-19 04:33N 39°43' E 001°53'1111.3
2016-May-19 03:33N 39°32' E 001°57'1111.2
2016-May-19 02:33N 39°21' E 002°00'1111.3
2016-May-19 01:33N 39°11' E 002°06'1111.3
2016-May-19 00:33N 39°00' E 002°12'1211.4
2016-May-18 23:28N 38°49' E 002°17'1010.8
2016-May-18 22:33N 38°39' E 002°21'1110.9
2016-May-18 21:33N 38°29' E 002°24'1110.9
2016-May-18 20:32N 38°18' E 002°28'1210.9
2016-May-18 19:24N 38°06' E 002°32'  
2016-May-14 23:32N 33°02' E 014°43'3610.6
2016-May-14 20:05N 32°33' E 015°09'  

Dump ship's entire track history